Crawfordsville, IN (47936)

7:33 AM EST on December 26, 2014 (GMT -0500)
Winslow Drive | Change Station
CLOSE
Current Station
Personal Weather Station
Location: Crawfordsville, IN
Elevation: 725 ft
Nearby Weather Stations

Elev 725 ft 40.04 °N, 86.95 °W | Updated 1 second ago

Clear
Clear
36.1 °F
Feels Like 36 °F
N
0.9
Wind Variable Wind from SSE
Gusts 2.5 mph

Today
High -- | Low -- °F
--% Chance of Precip.
Yesterday
High -- | Low -- °F
Precip. -- in
8:08 AM 5:28 PM
Waxing Crescent, 25% visible
Pressure 30.11 in
Visibility 10.0 miles
Clouds Clear
Windchill 36 °F
Dew Point 34 °F
Humidity 91%
Rainfall 0.00 in
Snow Depth Not available.
UV 0.0 out of 12
Pollen .10 out of 12
Air Quality Not available.
Flu Activity Not available.
METAR KLAF 261154Z 20005KT 10SM CLR 03/00 A3009 RMK AO2 SLP195 T00280000 10028 20006 55003

More Conditions Fewer Conditions

Pressure 30.11 in
Visibility 10.0 miles
Clouds Clear
Windchill 36 °F
Dew Point 34 °F
Humidity 91%
Rainfall 0.00 in
Snow Depth Not available.
UV 0.0 out of 12
Pollen .10 out of 12
Air Quality Not available.
Flu Activity Not available.
METAR KLAF 261154Z 20005KT 10SM CLR 03/00 A3009 RMK AO2 SLP195 T00280000 10028 20006 55003

More Conditions Fewer Conditions

10-Day Weather Forecast

Almanac

Astronomy

Dec. 26, 2014 Rise Set
Actual Time
Civil Twilight
Nautical Twilight
Astronomical Twilight
Moon
Length of Visible Light
Length of Day
Tomorrow will be .
, % of the Moon is Illuminated

Today's Extremes

State Highs State Lows

Community

WunderPhotos

Upload Photos

1,780,586 photos uploaded!

WunderBlogs® & News

Nearby

Air Quality

  Air Quality AQ Index Pollutant
Not available.

Snow Depth

Station Depth Elevation

Earthquake Activity

City Distance Mag. Time & Date
Minimum magnitude displayed is 2.5.

Coastal Water Temperatures

Place Temperature

Nearby Weather Stations